createdAt,value
2022-11-15T00:01:17.904Z,7.28
2022-11-15T00:03:46.188Z,6.45
2022-11-15T00:06:13.999Z,8.43
2022-11-15T00:08:41.927Z,6.70
2022-11-15T00:11:13.706Z,6.50
2022-11-15T00:13:41.748Z,6.32
2022-11-15T00:16:11.399Z,7.47
2022-11-15T00:18:39.606Z,6.45
2022-11-15T00:21:09.729Z,6.47
2022-11-15T00:23:38.121Z,7.93
2022-11-15T00:26:06.198Z,7.53
2022-11-15T00:28:34.511Z,7.43
2022-11-15T00:31:03.669Z,6.95
2022-11-15T00:33:33.457Z,6.53
2022-11-15T00:36:03.271Z,6.53
2022-11-15T00:38:33.859Z,6.13
2022-11-15T00:41:06.415Z,7.55
2022-11-15T00:43:36.972Z,7.75
2022-11-15T00:46:04.907Z,7.30
2022-11-15T00:48:34.104Z,8.40
2022-11-15T00:51:01.762Z,7.40
2022-11-15T00:53:29.910Z,7.00
2022-11-15T00:55:58.074Z,5.93
2022-11-15T00:58:25.837Z,6.88
2022-11-15T01:00:53.632Z,6.07
2022-11-15T01:03:21.367Z,6.63
2022-11-15T01:05:50.380Z,7.35
2022-11-15T01:08:18.740Z,7.15
2022-11-15T01:10:46.544Z,6.03
2022-11-15T01:13:14.345Z,6.93
2022-11-15T01:15:42.434Z,6.90
2022-11-15T01:18:10.263Z,6.10
2022-11-15T01:20:41.688Z,6.32
2022-11-15T01:23:11.254Z,6.75
2022-11-15T01:25:39.027Z,5.95
2022-11-15T01:28:06.838Z,6.47
2022-11-15T01:30:34.657Z,7.32
2022-11-15T01:33:02.410Z,6.75
2022-11-15T01:35:30.157Z,6.88
2022-11-15T01:37:58.388Z,7.35
2022-11-15T01:40:27.398Z,6.65
2022-11-15T01:42:55.108Z,6.88
2022-11-15T01:45:23.116Z,6.63
2022-11-15T01:47:54.413Z,7.13
2022-11-15T01:50:25.749Z,6.57
2022-11-15T01:52:53.717Z,7.55
2022-11-15T01:55:24.970Z,7.43
2022-11-15T01:57:59.114Z,6.70
2022-11-15T02:00:26.841Z,6.22
2022-11-15T02:02:54.918Z,7.55
2022-11-15T02:05:24.227Z,6.70
2022-11-15T02:07:52.188Z,7.53
2022-11-15T02:10:22.600Z,7.07
2022-11-15T02:12:51.308Z,6.30
2022-11-15T02:15:20.773Z,7.10
2022-11-15T02:18:06.813Z,7.32
2022-11-15T02:20:54.476Z,6.32
2022-11-15T02:23:43.476Z,5.95
2022-11-15T02:26:30.963Z,6.63
2022-11-15T02:29:05.487Z,6.60
2022-11-15T02:31:42.244Z,5.57
2022-11-15T02:34:18.906Z,5.57
2022-11-15T02:36:57.732Z,5.32
2022-11-15T02:39:33.657Z,5.95
2022-11-15T02:42:04.963Z,4.78
2022-11-15T02:44:36.161Z,5.93
2022-11-15T02:47:14.585Z,6.13
2022-11-15T02:49:47.343Z,6.97
2022-11-15T02:52:18.096Z,6.80
2022-11-15T02:54:55.738Z,6.30
2022-11-15T02:57:38.556Z,6.05
2022-11-15T03:00:11.017Z,6.28
2022-11-15T03:03:03.180Z,6.03
2022-11-15T03:05:39.281Z,5.70
2022-11-15T03:08:12.377Z,6.30
2022-11-15T03:10:47.159Z,6.55
2022-11-15T03:13:24.130Z,6.38
2022-11-15T03:15:59.776Z,6.22
2022-11-15T03:18:34.413Z,6.00
2022-11-15T03:21:05.228Z,6.72
2022-11-15T03:23:34.797Z,5.75
2022-11-15T03:26:03.550Z,5.78
2022-11-15T03:28:38.334Z,4.88
2022-11-15T03:31:28.111Z,5.53
2022-11-15T03:34:00.003Z,5.70
2022-11-15T03:36:28.881Z,6.55
2022-11-15T03:39:01.973Z,6.28
2022-11-15T03:41:37.702Z,5.50
2022-11-15T03:44:15.920Z,5.63
2022-11-15T03:46:49.872Z,5.10
2022-11-15T03:49:24.630Z,5.55
2022-11-15T03:51:52.697Z,5.65
2022-11-15T03:54:20.444Z,5.35
2022-11-15T03:56:48.270Z,4.72
2022-11-15T03:59:16.014Z,4.65
2022-11-15T04:01:43.683Z,4.95
2022-11-15T04:04:11.491Z,5.32
2022-11-15T04:06:40.840Z,5.03
2022-11-15T04:09:08.788Z,5.45
2022-11-15T04:11:36.471Z,4.97
2022-11-15T04:14:04.277Z,4.82
2022-11-15T04:16:31.945Z,4.60
2022-11-15T04:19:17.431Z,4.88
2022-11-15T04:22:03.956Z,3.70
2022-11-15T04:24:31.644Z,4.28
2022-11-15T04:26:59.558Z,5.05
2022-11-15T04:29:36.505Z,4.80
2022-11-15T04:32:05.557Z,4.38
2022-11-15T04:34:34.034Z,4.55
2022-11-15T04:37:16.083Z,4.07
2022-11-15T04:39:45.454Z,3.15
2022-11-15T04:42:13.285Z,4.78
2022-11-15T04:44:40.975Z,4.00
2022-11-15T04:47:08.733Z,3.38
2022-11-15T04:49:36.472Z,3.40
2022-11-15T04:52:06.066Z,3.90
2022-11-15T04:54:33.745Z,5.05
2022-11-15T04:57:01.395Z,4.43
2022-11-15T04:59:29.161Z,3.35
2022-11-15T05:01:56.888Z,3.45
2022-11-15T05:04:23.624Z,4.15
2022-11-15T05:06:53.119Z,3.67
2022-11-15T05:09:23.021Z,2.80
2022-11-15T05:11:50.767Z,3.03
2022-11-15T05:14:18.644Z,3.80
2022-11-15T05:16:46.339Z,3.50
2022-11-15T05:19:14.040Z,4.35
2022-11-15T05:21:41.814Z,5.10
2022-11-15T05:24:11.926Z,3.90
2022-11-15T05:26:41.044Z,3.88
2022-11-15T05:29:11.314Z,3.88
2022-11-15T05:31:42.087Z,3.85
2022-11-15T05:34:09.845Z,3.50
2022-11-15T05:36:39.587Z,3.15
2022-11-15T05:39:09.460Z,3.85
2022-11-15T05:41:43.406Z,3.75
2022-11-15T05:44:15.458Z,2.85
2022-11-15T05:46:44.283Z,3.25
2022-11-15T05:49:14.802Z,3.13
2022-11-15T05:51:43.984Z,3.40
2022-11-15T05:54:13.033Z,3.53
2022-11-15T05:56:42.307Z,3.53
2022-11-15T05:59:11.225Z,3.88
2022-11-15T06:01:40.266Z,3.22
2022-11-15T06:04:08.095Z,4.80
2022-11-15T06:06:36.096Z,4.63
2022-11-15T06:09:05.584Z,5.68
2022-11-15T06:11:33.557Z,5.80
2022-11-15T06:14:02.915Z,5.80
2022-11-15T06:16:30.646Z,5.60
2022-11-15T06:18:58.487Z,4.38
2022-11-15T06:21:28.753Z,4.13
2022-11-15T06:23:56.670Z,4.55
2022-11-15T06:26:24.573Z,4.07
2022-11-15T06:28:52.255Z,4.80
2022-11-15T06:31:21.238Z,4.15
2022-11-15T06:33:50.357Z,4.63
2022-11-15T06:36:18.375Z,4.25
2022-11-15T06:38:46.915Z,4.13
2022-11-15T06:41:16.012Z,4.13
2022-11-15T06:43:44.095Z,4.30
2022-11-15T06:46:13.150Z,4.63
2022-11-15T06:48:42.301Z,4.80
2022-11-15T06:51:10.021Z,4.80
2022-11-15T06:53:38.138Z,3.85
2022-11-15T06:56:08.086Z,3.63
2022-11-15T06:58:36.271Z,4.60
2022-11-15T07:01:06.549Z,4.20
2022-11-15T07:03:36.359Z,5.13
2022-11-15T07:06:07.679Z,3.80
2022-11-15T07:08:36.744Z,3.95
2022-11-15T07:11:07.169Z,4.28
2022-11-15T07:13:36.089Z,5.20
2022-11-15T07:16:04.907Z,4.75
2022-11-15T07:18:32.867Z,4.22
2022-11-15T07:21:03.572Z,4.10
2022-11-15T07:23:33.219Z,3.20
2022-11-15T07:26:01.332Z,3.38
2022-11-15T07:28:29.743Z,3.42
2022-11-15T07:30:57.938Z,3.83
2022-11-15T07:33:25.700Z,3.75
2022-11-15T07:35:53.401Z,3.35
2022-11-15T07:38:21.626Z,3.85
2022-11-15T07:40:58.454Z,3.67
2022-11-15T07:43:26.806Z,3.90
2022-11-15T07:45:58.785Z,3.97
2022-11-15T07:48:35.613Z,3.33
2022-11-15T07:51:14.429Z,4.05
2022-11-15T07:53:42.584Z,3.95
2022-11-15T07:56:11.976Z,4.43
2022-11-15T07:58:39.757Z,3.80
2022-11-15T08:01:08.800Z,3.95
2022-11-15T08:03:37.604Z,4.15
2022-11-15T08:06:05.921Z,3.53
2022-11-15T08:08:33.588Z,3.45
2022-11-15T08:11:01.824Z,2.83
2022-11-15T08:13:31.130Z,3.53
2022-11-15T08:16:02.270Z,3.47
2022-11-15T08:18:29.979Z,2.95
2022-11-15T08:21:01.344Z,3.25
2022-11-15T08:23:29.972Z,3.70
2022-11-15T08:26:02.663Z,3.28
2022-11-15T08:28:32.056Z,3.20
2022-11-15T08:30:59.846Z,4.20
2022-11-15T08:33:28.723Z,3.13
2022-11-15T08:35:58.323Z,3.17
2022-11-15T08:38:26.164Z,3.13
2022-11-15T08:40:55.182Z,3.72
2022-11-15T08:43:25.478Z,3.63
2022-11-15T08:45:57.594Z,4.20
2022-11-15T08:48:25.289Z,3.80
2022-11-15T08:50:55.929Z,4.18
2022-11-15T08:53:24.397Z,3.95
2022-11-15T08:55:52.117Z,3.25
2022-11-15T08:58:19.834Z,4.43
2022-11-15T09:00:47.493Z,3.50
2022-11-15T09:03:16.628Z,4.28
2022-11-15T09:05:44.404Z,3.83
2022-11-15T09:08:32.932Z,3.63
2022-11-15T09:11:00.207Z,4.43
2022-11-15T09:13:27.930Z,4.50
2022-11-15T09:15:59.382Z,3.70
2022-11-15T09:18:28.919Z,3.92
2022-11-15T09:20:58.492Z,3.10
2022-11-15T09:23:27.260Z,4.65
2022-11-15T09:26:01.326Z,3.55
2022-11-15T09:28:29.611Z,3.80
2022-11-15T09:30:59.865Z,3.25
2022-11-15T09:33:30.226Z,3.35
2022-11-15T09:36:02.607Z,3.67
2022-11-15T09:38:30.785Z,3.80
2022-11-15T09:41:19.863Z,3.25
2022-11-15T09:43:59.804Z,3.13
2022-11-15T09:46:39.788Z,3.30
2022-11-15T09:49:11.418Z,2.38
2022-11-15T09:51:47.396Z,3.55
2022-11-15T09:57:22.321Z,3.17
2022-11-15T10:00:44.756Z,2.80
2022-11-15T10:03:05.291Z,3.05
2022-11-15T10:05:39.651Z,3.55
2022-11-15T10:08:22.921Z,3.17
2022-11-15T10:11:15.834Z,3.30
2022-11-15T10:13:45.230Z,3.10
2022-11-15T10:16:28.150Z,3.53
2022-11-15T10:19:05.668Z,3.50
2022-11-15T10:21:47.123Z,4.47
2022-11-15T10:24:20.615Z,3.15
2022-11-15T10:26:49.628Z,3.28
2022-11-15T10:29:26.420Z,3.63
2022-11-15T10:31:55.084Z,3.10
2022-11-15T10:34:24.531Z,3.60
2022-11-15T10:36:58.799Z,3.33
2022-11-15T10:39:27.176Z,3.10
2022-11-15T10:41:55.492Z,2.72
2022-11-15T10:44:28.758Z,3.20
2022-11-15T10:47:23.474Z,2.50
2022-11-15T10:50:00.157Z,2.85
2022-11-15T10:52:31.942Z,2.58
2022-11-15T10:55:05.605Z,2.33
2022-11-15T10:57:36.077Z,2.70
2022-11-15T11:00:09.295Z,2.70
2022-11-15T11:02:40.188Z,2.20
2022-11-15T11:05:27.634Z,2.00
2022-11-15T11:08:00.534Z,3.03
2022-11-15T11:13:23.001Z,3.33
2022-11-15T11:15:57.120Z,3.65
2022-11-15T11:18:30.039Z,3.00
2022-11-15T11:21:03.952Z,2.47
2022-11-15T11:23:47.885Z,2.92
2022-11-15T11:26:34.997Z,4.28
2022-11-15T11:29:17.710Z,3.08
2022-11-15T11:31:56.605Z,2.58
2022-11-15T11:34:43.760Z,2.20
2022-11-15T11:37:19.709Z,2.70
2022-11-15T11:40:02.969Z,1.88
2022-11-15T11:42:42.927Z,2.38
2022-11-15T11:45:20.553Z,2.72
2022-11-15T11:47:51.223Z,2.35
2022-11-15T11:50:21.855Z,2.85
2022-11-15T11:53:03.662Z,2.10
2022-11-15T11:55:37.383Z,2.55
2022-11-15T11:58:11.937Z,2.70
2022-11-15T12:00:43.790Z,2.33
2022-11-15T12:03:16.052Z,2.65
2022-11-15T12:05:47.269Z,2.97
2022-11-15T12:08:27.773Z,2.17
2022-11-15T12:11:09.131Z,3.30
2022-11-15T12:13:38.739Z,3.50
2022-11-15T12:16:13.491Z,2.78
2022-11-15T12:18:45.567Z,2.17
2022-11-15T12:21:25.399Z,2.78
2022-11-15T12:24:01.120Z,2.92
2022-11-15T12:26:36.360Z,2.88
2022-11-15T12:29:12.300Z,2.90
2022-11-15T12:31:44.571Z,2.60
2022-11-15T12:34:33.126Z,2.60
2022-11-15T12:37:00.894Z,2.70
2022-11-15T12:40:02.468Z,3.13
2022-11-15T12:42:43.437Z,2.33
2022-11-15T12:45:28.419Z,2.33
2022-11-15T12:48:13.732Z,2.92
2022-11-15T12:50:59.053Z,2.70
2022-11-15T12:53:31.501Z,2.72
2022-11-15T12:56:21.655Z,2.40
2022-11-15T12:58:53.445Z,2.70
2022-11-15T13:01:58.426Z,5.57
2022-11-15T13:04:29.138Z,3.70
2022-11-15T13:06:59.411Z,3.00
2022-11-15T13:09:54.463Z,2.78
2022-11-15T13:12:53.125Z,2.85
2022-11-15T13:15:43.123Z,2.88
2022-11-15T13:18:32.584Z,3.08
2022-11-15T13:21:02.936Z,2.60
2022-11-15T13:23:31.234Z,2.05
2022-11-15T13:26:12.341Z,3.67
2022-11-15T13:28:46.322Z,2.08
2022-11-15T13:31:31.809Z,2.58
2022-11-15T13:34:03.060Z,2.08
2022-11-15T13:36:34.025Z,3.42
2022-11-15T13:39:04.148Z,2.72
2022-11-15T13:41:34.257Z,3.10
2022-11-15T13:44:03.647Z,2.90
2022-11-15T13:46:34.658Z,2.63
2022-11-15T13:49:04.331Z,2.80
2022-11-15T13:51:39.043Z,2.25
2022-11-15T13:54:21.562Z,3.65
2022-11-15T13:56:53.883Z,2.80
2022-11-15T13:59:26.745Z,2.15
2022-11-15T14:01:57.271Z,2.10
2022-11-15T14:04:30.605Z,2.75
2022-11-15T14:07:01.022Z,3.00
2022-11-15T14:09:36.852Z,2.28
2022-11-15T14:12:25.152Z,1.95
2022-11-15T14:14:53.294Z,2.20
2022-11-15T14:17:34.646Z,3.40
2022-11-15T14:20:02.980Z,2.28
2022-11-15T14:22:32.012Z,2.47
2022-11-15T14:25:17.241Z,2.30
2022-11-15T14:27:46.581Z,2.70
2022-11-15T14:30:16.670Z,3.55
2022-11-15T14:32:48.714Z,3.17
2022-11-15T14:35:19.056Z,2.55
2022-11-15T14:37:47.743Z,2.28
2022-11-15T14:40:17.230Z,3.08
2022-11-15T14:42:47.170Z,2.47
2022-11-15T14:45:18.068Z,2.70
2022-11-15T14:47:47.371Z,2.63
2022-11-15T14:50:16.926Z,3.03
2022-11-15T14:52:44.721Z,1.75
2022-11-15T14:55:19.953Z,2.20
2022-11-15T14:57:47.993Z,2.70
2022-11-15T15:00:16.576Z,3.17
2022-11-15T15:02:45.889Z,2.78
2022-11-15T15:05:18.533Z,2.55
2022-11-15T15:07:46.699Z,2.10
2022-11-15T15:10:39.034Z,1.98
2022-11-15T15:13:03.230Z,3.45
2022-11-15T15:15:36.366Z,2.90
2022-11-15T15:18:05.493Z,2.65
2022-11-15T15:20:34.646Z,2.42
2022-11-15T15:23:02.399Z,2.30
2022-11-15T15:25:32.842Z,2.38
2022-11-15T15:28:01.297Z,2.22
2022-11-15T15:30:31.214Z,2.25
2022-11-15T15:32:59.314Z,3.15
2022-11-15T15:35:32.022Z,3.35
2022-11-15T15:38:01.428Z,2.97
2022-11-15T15:40:31.001Z,2.97
2022-11-15T15:42:59.043Z,3.15
2022-11-15T15:45:28.036Z,2.20
2022-11-15T15:47:56.151Z,2.80
2022-11-15T15:50:26.562Z,3.45
2022-11-15T15:52:57.165Z,3.58
2022-11-15T15:55:27.235Z,6.63
2022-11-15T15:57:55.588Z,4.90
2022-11-15T16:00:25.657Z,3.60
2022-11-15T16:02:54.420Z,3.88
2022-11-15T16:05:22.900Z,3.17
2022-11-15T16:07:50.854Z,2.92
2022-11-15T16:10:22.721Z,3.17
2022-11-15T16:12:51.832Z,4.07
2022-11-15T16:15:20.105Z,2.97
2022-11-15T16:17:51.668Z,3.10
2022-11-15T16:20:33.111Z,3.22
2022-11-15T16:23:07.590Z,3.60
2022-11-15T16:25:42.094Z,3.45
2022-11-15T16:28:19.133Z,3.85
2022-11-15T16:30:49.009Z,2.28
2022-11-15T16:33:21.140Z,3.63
2022-11-15T16:35:49.306Z,3.30
2022-11-15T16:38:19.266Z,3.30
2022-11-15T16:40:47.091Z,3.22
2022-11-15T16:43:16.466Z,3.38
2022-11-15T16:45:44.260Z,4.18
2022-11-15T16:48:23.604Z,3.75
2022-11-15T16:50:51.659Z,4.68
2022-11-15T16:53:20.052Z,5.30
2022-11-15T16:55:48.357Z,4.78
2022-11-15T16:58:17.575Z,4.15
2022-11-15T17:00:46.199Z,4.95
2022-11-15T17:03:14.210Z,5.43
2022-11-15T17:05:42.011Z,8.63
2022-11-15T17:08:09.731Z,7.32
2022-11-15T17:10:40.783Z,5.13
2022-11-15T17:13:11.619Z,6.13
2022-11-15T17:15:41.186Z,5.13
2022-11-15T17:18:14.828Z,6.28
2022-11-15T17:20:46.054Z,5.68
2022-11-15T17:23:15.588Z,6.80
2022-11-15T17:25:43.612Z,5.95
2022-11-15T17:28:12.314Z,4.57
2022-11-15T17:30:44.157Z,5.63
2022-11-15T17:33:12.133Z,5.45
2022-11-15T17:35:39.808Z,5.22
2022-11-15T17:38:08.174Z,6.05
2022-11-15T17:40:35.849Z,6.85
2022-11-15T17:43:03.566Z,5.68
2022-11-15T17:45:31.234Z,5.60
2022-11-15T17:48:00.298Z,5.50
2022-11-15T17:50:28.237Z,5.47
2022-11-15T17:52:57.238Z,5.43
2022-11-15T17:55:24.943Z,6.82
2022-11-15T17:57:52.643Z,6.95
2022-11-15T18:00:21.652Z,7.40
2022-11-15T18:02:49.436Z,5.40
2022-11-15T18:05:18.440Z,6.25
2022-11-15T18:07:46.158Z,6.22
2022-11-15T18:10:13.893Z,6.40
2022-11-15T18:12:41.593Z,6.72
2022-11-15T18:15:09.997Z,5.97
2022-11-15T18:17:38.380Z,6.72
2022-11-15T18:20:07.605Z,6.65
2022-11-15T18:22:36.769Z,6.88
2022-11-15T18:25:04.896Z,6.22
2022-11-15T18:27:33.216Z,6.28
2022-11-15T18:30:00.883Z,6.53
2022-11-15T18:32:28.891Z,6.55
2022-11-15T18:34:56.620Z,12.25
2022-11-15T18:37:24.340Z,6.18
2022-11-15T18:42:41.505Z,6.78
2022-11-15T18:45:10.514Z,6.22
2022-11-15T18:47:38.577Z,6.18
2022-11-15T18:50:07.001Z,4.57
2022-11-15T18:52:34.701Z,6.40
2022-11-15T18:55:04.269Z,6.20
2022-11-15T18:57:31.971Z,6.68
2022-11-15T18:59:59.683Z,6.40
2022-11-15T19:02:27.899Z,5.43
2022-11-15T19:04:55.700Z,6.45
2022-11-15T19:07:23.652Z,6.25
2022-11-15T19:09:51.530Z,5.43
2022-11-15T19:12:20.726Z,6.70
2022-11-15T19:14:48.863Z,5.80
2022-11-15T19:17:16.942Z,6.25
2022-11-15T19:19:44.868Z,4.47
2022-11-15T19:22:12.725Z,5.55
2022-11-15T19:24:40.940Z,6.05
2022-11-15T19:27:09.279Z,5.35
2022-11-15T19:29:40.745Z,5.75
2022-11-15T19:32:08.997Z,6.22
2022-11-15T19:34:37.220Z,5.75
2022-11-15T19:37:05.291Z,5.70
2022-11-15T19:39:36.974Z,5.72
2022-11-15T19:42:07.469Z,5.72
2022-11-15T19:44:35.770Z,5.38
2022-11-15T19:47:06.685Z,5.70
2022-11-15T19:49:34.550Z,5.88
2022-11-15T19:52:02.248Z,5.70
2022-11-15T19:54:33.760Z,5.50
2022-11-15T19:57:01.692Z,5.93
2022-11-15T19:59:29.457Z,5.30
2022-11-15T20:01:57.360Z,5.05
2022-11-15T20:04:26.595Z,5.78
2022-11-15T20:06:54.355Z,4.22
2022-11-15T20:09:22.109Z,4.70
2022-11-15T20:11:50.144Z,6.13
2022-11-15T20:14:18.267Z,6.28
2022-11-15T20:16:48.960Z,5.38
2022-11-15T20:19:19.170Z,7.75
2022-11-15T20:21:48.258Z,8.52
2022-11-15T20:24:16.110Z,5.50
2022-11-15T20:26:44.023Z,5.43
2022-11-15T20:29:12.308Z,4.47
2022-11-15T20:31:40.431Z,5.28
2022-11-15T20:34:08.381Z,5.05
2022-11-15T20:36:36.195Z,4.75
2022-11-15T20:39:05.547Z,4.57
2022-11-15T20:41:33.274Z,5.13
2022-11-15T20:44:03.144Z,4.85
2022-11-15T20:46:31.024Z,4.75
2022-11-15T20:48:59.195Z,4.15
2022-11-15T20:51:27.158Z,4.18
2022-11-15T20:53:55.064Z,5.22
2022-11-15T20:56:24.762Z,3.97
2022-11-15T20:58:53.368Z,4.72
2022-11-15T21:01:23.902Z,4.57
2022-11-15T21:03:52.998Z,5.20
2022-11-15T21:06:21.222Z,3.75
2022-11-15T21:09:03.457Z,4.47
2022-11-15T21:11:50.184Z,4.13
2022-11-15T21:14:18.403Z,4.40
2022-11-15T21:16:46.385Z,4.15
2022-11-15T21:19:14.078Z,4.22
2022-11-15T21:21:41.842Z,4.15
2022-11-15T21:24:10.897Z,4.63
2022-11-15T21:26:42.499Z,4.22
2022-11-15T21:29:10.204Z,3.97
2022-11-15T21:31:38.152Z,3.83
2022-11-15T21:34:07.272Z,5.45
2022-11-15T21:36:34.995Z,4.40
2022-11-15T21:39:02.955Z,3.90
2022-11-15T21:41:31.092Z,4.43
2022-11-15T21:44:01.133Z,4.63
2022-11-15T21:46:30.094Z,5.18
2022-11-15T21:48:59.031Z,6.22
2022-11-15T21:51:27.349Z,5.38
2022-11-15T21:53:56.705Z,5.30
2022-11-15T21:56:25.540Z,4.47
2022-11-15T21:58:54.293Z,4.30
2022-11-15T22:01:42.726Z,3.85
2022-11-15T22:04:10.561Z,3.85
2022-11-15T22:06:39.027Z,4.72
2022-11-15T22:09:07.200Z,3.80
2022-11-15T22:11:35.668Z,4.50
2022-11-15T22:14:03.931Z,3.55
2022-11-15T22:16:33.912Z,3.70
2022-11-15T22:19:02.347Z,3.95
2022-11-15T22:21:30.361Z,4.25
2022-11-15T22:23:58.484Z,4.65
2022-11-15T22:26:26.362Z,4.05
2022-11-15T22:28:54.157Z,4.47
2022-11-15T22:31:22.014Z,4.00
2022-11-15T22:33:51.326Z,4.78
2022-11-15T22:36:19.077Z,4.35
2022-11-15T22:38:46.860Z,4.30
2022-11-15T22:41:14.621Z,5.00
2022-11-15T22:43:42.705Z,4.25
2022-11-15T22:46:11.221Z,4.60
2022-11-15T22:48:39.768Z,5.35
2022-11-15T22:51:10.893Z,4.90
2022-11-15T22:53:38.754Z,5.53
2022-11-15T22:56:07.146Z,4.72
2022-11-15T22:58:36.063Z,4.50
2022-11-15T23:01:06.090Z,4.40
2022-11-15T23:03:34.942Z,4.65
2022-11-15T23:06:04.089Z,4.45
2022-11-15T23:08:33.581Z,4.22
2022-11-15T23:11:19.945Z,4.40
2022-11-15T23:13:50.263Z,3.83
2022-11-15T23:16:25.514Z,3.38
2022-11-15T23:18:54.974Z,4.47
2022-11-15T23:21:41.877Z,6.07
2022-11-15T23:24:12.816Z,4.78
2022-11-15T23:26:41.604Z,5.10
2022-11-15T23:29:12.121Z,4.57
2022-11-15T23:32:01.885Z,5.10
2022-11-15T23:34:31.711Z,5.15
2022-11-15T23:36:59.945Z,4.68
2022-11-15T23:39:29.111Z,5.45
2022-11-15T23:41:57.346Z,4.75
2022-11-15T23:44:25.639Z,6.30
2022-11-15T23:46:54.296Z,4.80
2022-11-15T23:49:22.572Z,6.13
2022-11-15T23:51:50.625Z,5.35
2022-11-15T23:54:18.566Z,5.30
2022-11-15T23:56:47.869Z,5.40
2022-11-15T23:59:15.919Z,5.85
